Time;durP1;ratioP1;P1;durP2;ratioP2;P2;SDS_P1;SDS_P2;PMS_P1;PMS_P2;Temp;Humidity;BMP_temperature;BMP_pressure;BME280_temperature;BME280_humidity;BME280_pressure;Samples;Min_cycle;Max_cycle;Signal;HPM_P1;HPM_P2
2024/01/24 04:18:05;;;;;;;29.15;15.77;;;;;;;0.74;71.70;100625.94;5564154;23;20026;-95
2024/01/24 04:20:35;;;;;;;33.28;15.85;;;;;;;0.87;71.15;100636.00;4921837;29;20422;-96
2024/01/24 04:23:02;;;;;;;30.20;16.67;;;;;;;0.79;71.06;100633.38;4912414;29;20031;-95
2024/01/24 04:25:28;;;;;;;34.42;17.27;;;;;;;0.73;70.61;100623.47;4909895;29;20008;-96
2024/01/24 04:27:56;;;;;;;31.27;16.40;;;;;;;0.74;70.66;100631.22;4908846;29;20038;-96
2024/01/24 04:30:23;;;;;;;35.13;19.33;;;;;;;0.78;70.19;100647.63;4927125;29;20043;-96
2024/01/24 04:32:51;;;;;;;36.17;18.08;;;;;;;0.62;70.23;100648.50;4927517;29;20035;-96
2024/01/24 04:35:19;;;;;;;38.95;18.85;;;;;;;0.49;70.95;100641.13;4925445;29;20055;-96
2024/01/24 04:37:46;;;;;;;36.13;18.67;;;;;;;0.49;70.72;100646.41;4927451;29;20032;-96
2024/01/24 04:40:15;;;;;;;38.55;20.15;;;;;;;0.44;70.35;100659.38;4910380;29;20497;-96
2024/01/24 04:42:41;;;;;;;38.25;19.75;;;;;;;0.44;71.13;100675.25;4925721;29;20106;-96
2024/01/24 04:45:10;;;;;;;37.45;19.48;;;;;;;0.39;70.52;100667.81;4910797;29;20379;-96
2024/01/24 04:47:38;;;;;;;44.05;19.92;;;;;;;0.39;70.38;100670.47;4910678;29;20020;-96
2024/01/24 04:50:05;;;;;;;37.88;19.67;;;;;;;0.44;70.29;100672.59;4908910;29;20043;-95
2024/01/24 04:52:33;;;;;;;36.38;19.77;;;;;;;0.43;70.46;100665.63;4927299;29;20099;-96
2024/01/24 04:55:01;;;;;;;38.92;20.85;;;;;;;0.34;70.16;100659.53;4932252;29;20012;-96
2024/01/24 04:57:38;;;;;;;39.40;20.70;;;;;;;0.37;70.50;100663.66;4921742;29;20038;-96
2024/01/24 05:00:15;;;;;;;46.05;21.02;;;;;;;0.36;70.23;100662.03;4951355;28;20051;-96
2024/01/24 05:02:44;;;;;;;59.38;26.75;;;;;;;0.35;70.52;100677.09;4934709;29;20503;-96
2024/01/24 05:05:14;;;;;;;51.15;24.33;;;;;;;0.29;70.91;100666.34;4917484;29;20123;-96
2024/01/24 05:07:40;;;;;;;42.17;22.27;;;;;;;0.44;71.11;100674.44;4937213;29;20036;-96
2024/01/24 05:10:21;;;;;;;41.90;22.58;;;;;;;0.34;71.03;100682.56;4933827;29;20028;-96
2024/01/24 05:12:55;;;;;;;44.75;22.15;;;;;;;0.31;71.06;100704.09;4955207;29;20042;-96
2024/01/24 05:15:25;;;;;;;44.15;24.20;;;;;;;0.24;71.50;100693.34;4954044;29;20512;-96
2024/01/24 05:18:00;;;;;;;42.35;23.67;;;;;;;0.09;71.42;100692.38;4924062;29;20046;-96
2024/01/24 05:20:40;;;;;;;47.97;23.35;;;;;;;0.15;71.10;100686.41;4941432;29;20059;-96
2024/01/24 05:23:07;;;;;;;45.08;24.20;;;;;;;0.29;71.19;100700.78;4926232;29;20038;-95
2024/01/24 05:25:35;;;;;;;38.50;22.20;;;;;;;0.29;71.77;100692.81;4924734;29;20031;-94
2024/01/24 05:28:08;;;;;;;45.40;23.42;;;;;;;0.31;72.29;100677.59;4938731;29;20031;-96
2024/01/24 05:30:44;;;;;;;40.08;23.17;;;;;;;0.33;72.55;100679.09;4922818;29;20036;-96
2024/01/24 05:33:12;;;;;;;40.50;24.17;;;;;;;0.26;72.41;100682.59;4937584;29;20026;-95
2024/01/24 05:36:04;;;;;;;44.50;24.63;;;;;;;0.34;71.95;100693.16;4918981;29;20127;-96
2024/01/24 05:38:50;;;;;;;46.53;23.83;;;;;;;0.10;72.12;100683.44;4951971;29;20070;-96
2024/01/24 05:41:18;;;;;;;42.35;23.17;;;;;;;0.25;71.71;100691.50;4940315;29;20034;-96
2024/01/24 05:43:44;;;;;;;38.03;20.20;;;;;;;0.51;71.97;100713.31;4923559;29;20047;-96
2024/01/24 05:48:42;;;;;;;43.88;24.27;;;;;;;0.26;71.82;100688.69;4935123;29;20052;-96
2024/01/24 05:51:21;;;;;;;46.00;25.50;;;;;;;0.26;72.36;100683.41;4919694;29;20052;-96
2024/01/24 05:53:49;;;;;;;42.20;24.02;;;;;;;0.31;72.03;100720.81;5054115;23;20501;-95
2024/01/24 05:56:15;;;;;;;58.95;29.98;;;;;;;0.37;71.74;100719.31;4937496;29;20051;-96
2024/01/24 06:09:14;;;;;;;40.05;25.88;;;;;;;0.36;71.96;100717.66;4934275;27;20070;-96
2024/01/24 06:14:15;;;;;;;84.03;45.83;;;;;;;0.40;72.43;100698.59;5831882;23;20071;-96
2024/01/24 06:17:19;;;;;;;54.60;29.35;;;;;;;0.58;72.35;100718.75;4921209;28;20031;-96
2024/01/24 07:05:57;;;;;;;53.47;28.67;;;;;;;0.47;71.13;100668.78;4929148;29;20068;-95
2024/01/24 07:08:23;;;;;;;52.90;26.98;;;;;;;0.56;71.48;100679.19;4889251;29;20048;-92
2024/01/24 07:11:13;;;;;;;53.80;28.25;;;;;;;0.71;71.46;100675.84;4928081;29;20043;-96
2024/01/24 07:13:39;;;;;;;44.58;26.75;;;;;;;0.95;70.51;100694.25;4910960;29;20048;-91
2024/01/24 07:16:07;;;;;;;45.13;24.70;;;;;;;1.05;70.31;100701.19;4889959;29;20028;-94
2024/01/24 07:18:33;;;;;;;59.42;36.45;;;;;;;1.06;70.07;100681.63;4919808;29;20072;-94
2024/01/24 07:21:22;;;;;;;48.78;28.95;;;;;;;1.23;70.85;100706.25;4890249;29;20028;-95
2024/01/24 07:23:48;;;;;;;47.60;25.85;;;;;;;1.24;69.88;100694.63;4903713;29;20032;-91
2024/01/24 07:26:14;;;;;;;46.50;25.80;;;;;;;1.31;70.27;100679.69;4886957;29;20036;-94
2024/01/24 07:28:44;;;;;;;46.55;25.60;;;;;;;1.48;69.35;100697.13;4913139;29;20934;-96
2024/01/24 07:31:17;;;;;;;123.10;61.30;;;;;;;1.55;69.11;100684.81;4891641;29;20483;-92
2024/01/24 07:33:43;;;;;;;51.05;29.75;;;;;;;1.67;68.38;100692.38;4907209;29;20024;-94
2024/01/24 07:36:14;;;;;;;62.85;37.45;;;;;;;1.79;68.05;100701.56;4923570;29;20040;-95
2024/01/24 07:38:45;;;;;;;49.55;27.52;;;;;;;1.90;67.88;100698.47;4927296;29;20057;-96
2024/01/24 07:44:50;;;;;;;55.47;30.65;;;;;;;2.08;67.30;100713.28;4886415;29;20048;-96
2024/01/24 07:47:42;;;;;;;51.13;26.90;;;;;;;2.16;67.68;100711.38;4850700;29;20028;-94
2024/01/24 07:50:05;;;;;;;45.55;25.88;;;;;;;2.27;67.41;100720.75;4923802;29;20064;-94
2024/01/24 07:52:30;;;;;;;46.47;26.70;;;;;;;2.15;68.08;100698.25;4932507;29;20077;-96
2024/01/24 07:58:32;;;;;;;63.00;33.40;;;;;;;2.44;67.95;100692.16;5191451;23;20058;-96
2024/01/24 08:19:23;;;;;;;52.85;28.92;;;;;;;3.23;66.21;100729.63;5501687;23;20281;-96
2024/01/24 08:22:09;;;;;;;;;;;;;;;;;;;;;
2024/01/24 08:24:57;;;;;;;57.83;31.00;;;;;;;3.22;66.04;100711.19;5098234;23;20067;-96
2024/01/24 08:27:23;;;;;;;50.70;27.25;;;;;;;3.32;64.76;100692.25;4900198;29;20032;-96
2024/01/24 08:32:33;;;;;;;42.33;26.08;;;;;;;3.54;64.92;100709.88;5419844;23;20048;-95
2024/01/24 09:07:16;;;;;;;;;;;;;;;;;;;;;
2024/01/24 09:09:50;;;;;;;36.75;22.52;;;;;;;4.74;63.57;100721.50;4946141;29;20139;-95
2024/01/24 10:07:34;;;;;;;18.52;12.20;;;;;;;5.53;63.66;100645.38;4913421;29;20096;-94
2024/01/24 10:10:12;;;;;;;23.92;12.13;;;;;;;5.51;63.61;100628.72;4864887;29;20044;-95
2024/01/24 10:16:08;;;;;;;;;;;;;;;;;;;;;
2024/01/24 10:18:48;;;;;;;25.05;12.60;;;;;;;5.89;62.33;100620.09;4997334;23;20120;-96
2024/01/24 10:21:17;;;;;;;20.00;13.30;;;;;;;5.98;62.35;100608.22;4908820;29;20044;-96
2024/01/24 10:24:33;;;;;;;;;;;;;;;;;;;;;
2024/01/24 10:27:10;;;;;;;27.90;13.43;;;;;;;6.06;61.56;100599.16;4889467;29;20142;-95
2024/01/24 10:30:11;;;;;;;25.15;13.88;;;;;;;6.15;61.41;100575.69;4890177;29;20092;-96
2024/01/24 10:33:17;;;;;;;;;;;;;;;;;;;;;
2024/01/24 10:35:52;;;;;;;26.55;14.95;;;;;;;6.21;61.32;100556.13;4908126;29;20093;-96
2024/01/24 10:38:59;;;;;;;21.30;12.75;;;;;;;6.22;60.02;100552.41;4896727;29;20032;-96
2024/01/24 10:42:20;;;;;;;21.75;12.70;;;;;;;6.19;60.73;100550.16;4883481;29;20477;-95
2024/01/24 10:44:58;;;;;;;;;;;;;;;;;;;;;
2024/01/24 10:47:37;;;;;;;13.27;8.02;;;;;;;6.57;58.66;100560.09;4892543;29;20103;-96
2024/01/24 10:57:12;;;;;;;14.52;8.68;;;;;;;6.49;57.90;100531.72;4893670;29;20048;-96
2024/01/24 11:02:45;;;;;;;18.38;11.50;;;;;;;6.61;58.88;100535.38;4882513;29;20037;-96
2024/01/24 11:13:41;;;;;;;16.05;8.82;;;;;;;6.66;58.12;100529.38;4889310;29;20064;-96
2024/01/24 11:16:41;;;;;;;;;;;;;;;;;;;;;
2024/01/24 11:19:32;;;;;;;13.52;9.00;;;;;;;6.78;57.95;100527.66;4896367;29;20096;-96
2024/01/24 11:25:16;;;;;;;19.50;11.02;;;;;;;6.68;58.35;100505.91;4881611;29;20029;-95
2024/01/24 11:27:55;;;;;;;18.42;11.45;;;;;;;6.80;58.69;100527.47;4877372;29;20041;-96
2024/01/24 11:30:32;;;;;;;19.00;11.38;;;;;;;6.84;58.84;100532.16;4874995;29;20041;-96
2024/01/24 11:33:18;;;;;;;20.77;12.38;;;;;;;6.56;59.60;100499.63;4890792;29;20049;-95
2024/01/24 11:36:16;;;;;;;26.33;13.63;;;;;;;6.57;59.95;100503.91;4870278;29;20411;-96
2024/01/24 11:38:48;;;;;;;20.52;12.20;;;;;;;6.52;59.81;100485.03;4866587;29;20029;-96
2024/01/24 11:41:41;;;;;;;;;;;;;;;;;;;;;
2024/01/24 11:44:24;;;;;;;25.33;14.00;;;;;;;6.47;59.37;100469.59;4923901;23;20124;-95
2024/01/24 11:47:26;;;;;;;20.73;12.40;;;;;;;6.44;59.47;100460.16;4882299;29;20049;-96
2024/01/24 12:17:42;;;;;;;25.63;13.05;;;;;;;5.79;62.38;100393.38;4924908;29;20052;-94
2024/01/24 12:20:16;;;;;;;24.70;12.93;;;;;;;6.00;62.08;100399.50;4893502;29;20032;-95
2024/01/24 12:23:28;;;;;;;19.38;12.45;;;;;;;6.11;61.60;100398.00;4896855;29;20032;-96
2024/01/24 12:31:54;;;;;;;18.58;11.52;;;;;;;6.41;59.58;100395.53;4907383;29;20063;-92
2024/01/24 12:34:22;;;;;;;22.80;11.85;;;;;;;6.46;59.71;100398.41;4900953;29;20028;-92
2024/01/24 12:36:48;;;;;;;21.10;12.93;;;;;;;6.49;59.22;100381.91;4888457;29;20036;-92
2024/01/24 12:39:15;;;;;;;23.13;13.18;;;;;;;6.52;59.11;100386.03;4917541;29;20080;-95
2024/01/24 12:50:04;;;;;;;;;;;;;;;;;;;;;
2024/01/24 12:52:54;;;;;;;25.98;12.15;;;;;;;6.56;59.67;100393.41;4918455;28;20085;-96
2024/01/24 12:56:15;;;;;;;20.45;12.15;;;;;;;6.60;59.52;100385.72;4893648;29;20013;-95
2024/01/24 12:58:39;;;;;;;29.40;14.80;;;;;;;6.54;59.34;100376.75;4869158;29;20037;-94
2024/01/24 13:01:10;;;;;;;19.40;11.95;;;;;;;6.29;59.38;100352.63;4890965;29;20104;-96
2024/01/24 13:21:43;;;;;;;27.25;13.55;;;;;;;6.31;59.92;100347.03;4926955;29;20062;-95
2024/01/24 13:26:46;;;;;;;21.33;12.38;;;;;;;6.19;59.71;100366.47;5218622;23;20062;-97
2024/01/24 13:29:12;;;;;;;23.77;13.15;;;;;;;6.06;60.97;100347.84;4927220;29;20042;-96
2024/01/24 13:31:38;;;;;;;24.90;14.38;;;;;;;5.84;61.83;100334.75;4914370;29;20020;-96
2024/01/24 13:34:03;;;;;;;22.13;13.73;;;;;;;5.84;61.19;100336.59;4912168;29;20032;-93
2024/01/24 13:36:29;;;;;;;22.80;13.75;;;;;;;5.92;61.51;100332.88;4896120;29;20103;-95
2024/01/24 13:38:55;;;;;;;23.10;12.50;;;;;;;6.10;61.46;100357.06;4900469;29;20082;-94
2024/01/24 13:41:24;;;;;;;22.30;12.93;;;;;;;6.00;61.25;100335.34;4909227;29;20091;-91
2024/01/24 13:43:53;;;;;;;20.00;13.10;;;;;;;6.02;60.73;100327.91;4902013;29;20135;-90
2024/01/24 13:46:19;;;;;;;21.00;11.88;;;;;;;6.12;59.78;100336.28;4910205;29;20388;-92
2024/01/24 13:48:44;;;;;;;22.00;13.07;;;;;;;6.13;60.26;100335.25;4904244;29;20043;-91
2024/01/24 13:51:10;;;;;;;27.55;15.93;;;;;;;6.16;60.47;100345.50;4900928;29;20027;-91
2024/01/24 13:54:12;;;;;;;22.85;13.50;;;;;;;6.17;59.99;100346.34;4911488;29;20016;-91
2024/01/24 13:57:11;;;;;;;24.52;14.43;;;;;;;5.99;60.31;100339.03;4884841;29;20128;-95
2024/01/24 13:59:51;;;;;;;24.23;13.43;;;;;;;5.91;60.93;100341.91;4867734;29;20036;-96
2024/01/24 14:02:20;;;;;;;22.73;13.38;;;;;;;5.83;61.03;100329.59;4854621;29;20040;-95
2024/01/24 14:05:06;;;;;;;22.27;12.93;;;;;;;5.93;61.09;100347.88;4854371;29;20040;-95
2024/01/24 14:07:45;;;;;;;;;;;;;;;;;;;;;
2024/01/24 14:10:13;;;;;;;23.27;13.90;;;;;;;5.63;61.90;100333.22;4874353;29;20112;-91
2024/01/24 14:12:39;;;;;;;25.85;14.20;;;;;;;5.57;62.51;100336.72;4884662;29;20504;-90
2024/01/24 14:15:08;;;;;;;23.10;13.25;;;;;;;5.78;62.19;100345.47;4883910;29;20036;-92
2024/01/24 14:17:34;;;;;;;24.20;14.48;;;;;;;5.60;61.94;100322.97;4867594;29;20064;-91
2024/01/24 14:20:22;;;;;;;24.10;14.65;;;;;;;5.74;61.76;100312.19;4859108;29;20047;-92
2024/01/24 14:22:48;;;;;;;23.45;14.27;;;;;;;5.74;61.69;100301.50;4902040;29;20099;-92
2024/01/24 14:25:14;;;;;;;23.63;13.50;;;;;;;5.80;60.98;100297.97;4890953;29;20043;-89
2024/01/24 14:27:40;;;;;;;23.58;13.82;;;;;;;5.86;60.66;100311.31;4904220;29;20506;-91
2024/01/24 14:30:15;;;;;;;25.75;13.48;;;;;;;5.88;60.85;100311.91;4894011;29;20162;-90
2024/01/24 14:32:40;;;;;;;20.55;13.13;;;;;;;5.94;60.60;100320.94;4910067;29;20043;-90
2024/01/24 14:35:06;;;;;;;21.65;13.82;;;;;;;6.02;60.53;100331.41;4928595;29;20032;-93
2024/01/24 14:37:32;;;;;;;21.70;13.13;;;;;;;5.84;60.87;100304.53;4895002;29;20039;-90
2024/01/24 14:39:57;;;;;;;23.42;12.30;;;;;;;6.07;60.15;100333.44;4924505;29;20115;-90
2024/01/24 14:43:21;;;;;;;40.10;22.10;;;;;;;6.07;60.28;100331.56;4910371;29;20047;-92
2024/01/24 14:49:32;;;;;;;23.95;14.20;;;;;;;5.81;60.72;100326.31;4874891;29;20056;-96
2024/01/24 14:51:57;;;;;;;24.77;15.48;;;;;;;5.77;61.21;100322.44;4834680;29;20045;-91
2024/01/24 14:54:23;;;;;;;25.60;15.20;;;;;;;5.77;60.65;100325.97;4883730;29;20185;-90
2024/01/24 14:56:51;;;;;;;25.83;15.43;;;;;;;5.94;60.53;100336.97;4901566;29;20054;-91
2024/01/24 14:59:17;;;;;;;24.80;14.50;;;;;;;5.72;60.91;100308.91;4909934;29;20023;-90
2024/01/24 15:01:46;;;;;;;28.95;17.08;;;;;;;5.63;61.13;100303.81;4909568;29;20099;-89
2024/01/24 15:04:11;;;;;;;30.00;18.60;;;;;;;5.54;61.37;100296.25;4934957;29;20036;-87
2024/01/24 15:06:37;;;;;;;37.10;23.33;;;;;;;5.42;62.23;100301.47;4931565;29;20051;-90
2024/01/24 15:09:06;;;;;;;30.88;18.55;;;;;;;5.49;62.38;100320.94;4934540;29;20052;-89
2024/01/24 15:11:37;;;;;;;32.58;18.10;;;;;;;5.44;62.11;100308.22;4925474;29;20024;-90
2024/01/24 15:14:05;;;;;;;36.20;20.02;;;;;;;5.36;62.02;100312.97;4922299;29;20035;-92
2024/01/24 15:16:30;;;;;;;29.30;19.00;;;;;;;5.16;62.87;100287.16;4892018;29;20115;-91
2024/01/24 15:22:21;;;;;;;40.28;26.48;;;;;;;5.30;63.09;100314.63;4888850;29;20089;-96
2024/01/24 15:24:49;;;;;;;115.87;61.40;;;;;;;5.16;63.15;100291.69;4868978;29;20037;-96
2024/01/24 15:27:24;;;;;;;39.80;23.52;;;;;;;5.15;63.26;100284.72;4866933;29;20623;-94
2024/01/24 15:29:52;;;;;;;46.85;24.40;;;;;;;5.02;63.02;100258.84;4881112;29;20037;-94
2024/01/24 15:32:22;;;;;;;49.33;26.90;;;;;;;4.92;63.69;100261.13;4873597;29;20464;-95
2024/01/24 15:34:48;;;;;;;42.92;25.40;;;;;;;4.91;64.61;100281.66;4859222;29;20029;-95
2024/01/24 15:37:15;;;;;;;39.83;22.73;;;;;;;4.88;64.06;100273.25;4875363;29;20048;-96
2024/01/24 15:39:42;;;;;;;38.95;23.00;;;;;;;4.71;63.65;100243.53;4862006;29;20048;-96
2024/01/24 15:42:11;;;;;;;44.45;24.45;;;;;;;4.68;63.89;100228.78;4867730;29;20085;-96
2024/01/24 15:44:36;;;;;;;50.72;24.67;;;;;;;4.61;64.38;100218.13;4862599;29;20376;-95
2024/01/24 15:47:07;;;;;;;45.25;24.17;;;;;;;4.49;64.41;100203.78;4863609;29;20033;-95
2024/01/24 15:49:37;;;;;;;47.63;25.88;;;;;;;4.50;64.73;100199.25;4864347;29;20423;-94
2024/01/24 15:52:04;;;;;;;42.97;23.95;;;;;;;4.49;64.50;100210.97;4874392;29;20047;-96
2024/01/24 15:54:30;;;;;;;41.30;24.75;;;;;;;4.35;64.58;100176.31;4900141;29;20012;-96
2024/01/24 15:56:56;;;;;;;49.85;28.70;;;;;;;4.28;65.35;100172.84;4903079;29;20059;-96
2024/01/24 15:59:30;;;;;;;;;;;;;;;4.37;65.19;100192.09;4918770;29;20067;-96
2024/01/24 16:01:59;;;;;;;60.50;31.75;;;;;;;4.22;65.73;100179.81;4915262;29;20396;-96
2024/01/24 16:04:25;;;;;;;70.97;40.95;;;;;;;4.08;66.48;100164.06;4900032;29;20028;-94
2024/01/24 16:06:52;;;;;;;80.68;45.45;;;;;;;4.11;66.06;100171.63;4916342;29;20099;-96
2024/01/24 16:09:30;;;;;;;68.97;42.13;;;;;;;4.12;66.62;100173.28;4909693;29;20032;-96
2024/01/24 16:12:02;;;;;;;64.55;38.88;;;;;;;4.16;66.63;100175.31;5302758;23;20068;-96
2024/01/24 16:14:28;;;;;;;69.25;38.42;;;;;;;4.28;66.72;100194.19;4894527;29;20432;-93
2024/01/24 16:16:57;;;;;;;81.88;45.30;;;;;;;4.17;66.40;100168.97;4893832;29;20127;-96
2024/01/24 16:19:31;;;;;;;71.75;42.00;;;;;;;4.13;66.14;100164.25;4929550;29;20047;-96
2024/01/24 16:22:02;;;;;;;66.70;40.10;;;;;;;4.07;66.44;100173.91;4911900;29;20036;-96
2024/01/24 16:24:28;;;;;;;62.37;34.90;;;;;;;3.92;66.30;100163.47;4893930;29;20024;-96
2024/01/24 16:27:01;;;;;;;63.78;34.60;;;;;;;3.99;66.44;100182.09;4894514;29;20061;-96
2024/01/24 16:29:32;;;;;;;59.15;35.30;;;;;;;3.79;67.10;100169.56;4900542;29;20028;-96
2024/01/24 16:32:11;;;;;;;68.10;36.45;;;;;;;4.04;66.90;100212.41;4917689;29;20036;-96
2024/01/24 16:34:39;;;;;;;51.28;30.48;;;;;;;3.92;66.64;100187.44;4914760;29;20083;-96
2024/01/24 16:37:04;;;;;;;55.15;31.15;;;;;;;3.75;66.95;100183.50;4897891;29;20052;-96
2024/01/24 16:39:33;;;;;;;59.47;33.67;;;;;;;3.80;66.61;100211.19;4897482;29;20065;-96
2024/01/24 16:42:04;;;;;;;63.65;35.03;;;;;;;3.72;66.59;100194.59;4926341;29;20032;-96
2024/01/24 16:44:32;;;;;;;70.45;36.10;;;;;;;3.66;67.24;100176.75;4912307;29;20024;-95
2024/01/24 16:46:58;;;;;;;59.10;34.28;;;;;;;3.59;67.49;100153.59;4895183;29;20051;-96
2024/01/24 16:49:26;;;;;;;61.00;33.58;;;;;;;3.57;67.16;100158.31;4894302;29;20029;-96
2024/01/24 16:51:52;;;;;;;59.33;32.50;;;;;;;3.52;67.13;100157.28;4892643;29;20120;-95
2024/01/24 16:54:20;;;;;;;58.90;33.42;;;;;;;3.52;67.03;100157.28;4894023;29;20463;-95
2024/01/24 16:56:49;;;;;;;66.00;35.72;;;;;;;3.62;67.47;100184.31;4892388;29;20039;-96
2024/01/24 16:59:14;;;;;;;66.95;35.17;;;;;;;3.34;68.13;100148.03;4924639;29;20036;-95
2024/01/24 17:01:49;;;;;;;197.90;87.55;;;;;;;3.40;67.43;100146.38;4909090;29;20092;-96
2024/01/24 17:04:17;;;;;;;48.90;29.02;;;;;;;3.35;68.07;100143.53;4892691;29;20036;-96
2024/01/24 17:06:43;;;;;;;50.22;29.33;;;;;;;3.33;67.76;100143.72;4908784;29;20032;-96
2024/01/24 17:09:08;;;;;;;53.10;29.60;;;;;;;3.31;67.44;100158.25;4905762;29;20146;-96
2024/01/24 17:11:34;;;;;;;54.22;30.88;;;;;;;3.26;67.97;100158.88;4890150;29;20048;-95
2024/01/24 17:14:00;;;;;;;53.10;31.77;;;;;;;3.19;68.37;100158.00;4892848;29;20131;-94
2024/01/24 17:16:25;;;;;;;56.03;31.48;;;;;;;3.19;68.18;100169.47;4890284;29;20044;-96
2024/01/24 17:18:54;;;;;;;77.05;47.83;;;;;;;3.26;68.33;100188.16;4892973;29;20088;-96
2024/01/24 17:21:48;;;;;;;64.53;37.25;;;;;;;3.16;68.43;100167.22;4892821;29;20068;-96
2024/01/24 17:24:15;;;;;;;68.70;39.00;;;;;;;3.13;68.64;100170.28;4898892;29;20041;-96
2024/01/24 17:26:41;;;;;;;73.68;45.47;;;;;;;3.22;69.00;100200.22;4907205;29;20044;-95
2024/01/24 17:54:20;;;;;;;64.72;38.35;;;;;;;3.07;68.82;100179.06;5975638;23;20014;-96
2024/01/24 17:56:46;;;;;;;70.45;41.63;;;;;;;3.12;68.98;100179.28;4944916;29;20040;-96
2024/01/24 17:59:14;;;;;;;81.85;40.00;;;;;;;3.15;68.29;100164.75;4931371;29;20028;-96
2024/01/24 18:01:44;;;;;;;69.70;39.28;;;;;;;3.14;68.62;100152.50;4934710;29;20023;-96
2024/01/24 18:04:10;;;;;;;71.18;39.42;;;;;;;3.12;69.28;100141.22;4949576;29;20117;-96
2024/01/24 18:06:37;;;;;;;74.80;39.42;;;;;;;3.21;68.73;100150.66;4929748;29;20035;-96
2024/01/24 18:09:03;;;;;;;67.93;38.25;;;;;;;3.23;68.20;100128.13;4914013;29;20131;-96
2024/01/24 18:11:29;;;;;;;71.78;38.20;;;;;;;3.17;68.42;100115.63;4912716;29;20023;-96
2024/01/24 18:13:55;;;;;;;104.90;49.75;;;;;;;3.19;68.75;100120.75;4913119;29;20410;-96
2024/01/24 18:16:20;;;;;;;92.07;47.65;;;;;;;3.27;68.56;100103.78;4912695;29;20032;-96
2024/01/24 18:18:48;;;;;;;76.95;40.90;;;;;;;3.35;69.01;100120.38;4929335;29;20031;-96
2024/01/24 18:21:14;;;;;;;75.50;41.75;;;;;;;3.38;69.02;100127.97;4914802;29;20031;-96
2024/01/24 18:23:41;;;;;;;58.03;34.95;;;;;;;3.27;69.09;100104.59;4929033;29;20066;-96
2024/01/24 18:26:06;;;;;;;61.55;32.47;;;;;;;3.48;69.16;100127.56;4914555;29;20055;-96
2024/01/24 18:28:33;;;;;;;48.00;29.73;;;;;;;3.52;69.09;100114.66;4913062;29;20040;-96
2024/01/24 18:31:01;;;;;;;48.35;30.63;;;;;;;3.55;68.64;100107.09;4930770;29;20099;-96
2024/01/24 18:33:30;;;;;;;57.72;32.03;;;;;;;3.65;68.26;100117.31;4917222;29;20031;-95
2024/01/24 18:35:55;;;;;;;54.42;31.13;;;;;;;3.64;68.92;100110.38;4916366;29;20036;-96
2024/01/24 18:38:22;;;;;;;53.08;32.05;;;;;;;3.64;68.87;100108.53;4915370;29;20028;-96
2024/01/24 18:40:50;;;;;;;57.42;32.35;;;;;;;3.55;68.37;100082.31;4912777;29;20023;-96
2024/01/24 18:43:17;;;;;;;55.05;30.63;;;;;;;3.61;68.33;100092.13;4945336;29;20093;-96
2024/01/24 18:45:43;;;;;;;54.70;31.40;;;;;;;3.57;67.97;100085.56;4933376;29;20039;-96
2024/01/24 18:48:09;;;;;;;53.17;31.63;;;;;;;3.52;68.24;100080.06;4915353;29;20043;-96
2024/01/24 18:50:35;;;;;;;55.00;31.10;;;;;;;3.54;68.29;100083.34;4929554;29;20028;-96
2024/01/24 18:53:07;;;;;;;54.67;31.40;;;;;;;3.54;67.80;100070.84;4915128;29;20046;-96
2024/01/24 18:55:33;;;;;;;48.45;30.10;;;;;;;3.53;67.83;100065.72;4929107;29;20067;-96
2024/01/24 18:57:59;;;;;;;55.20;31.02;;;;;;;3.54;67.97;100070.03;4917239;29;20039;-96
2024/01/24 19:00:26;;;;;;;46.95;26.45;;;;;;;3.62;68.04;100077.81;4911742;29;20039;-96
2024/01/24 19:02:53;;;;;;;48.83;27.08;;;;;;;3.64;67.50;100067.78;4928004;29;20023;-95
2024/01/24 19:05:20;;;;;;;44.05;26.90;;;;;;;3.65;67.83;100050.75;4914353;29;20091;-96
2024/01/24 19:07:49;;;;;;;48.80;29.13;;;;;;;3.72;67.05;100062.25;4944743;29;20056;-96
2024/01/24 19:10:15;;;;;;;47.08;27.08;;;;;;;3.59;68.20;100054.25;4915209;29;20123;-95
2024/01/24 19:12:41;;;;;;;50.13;27.85;;;;;;;3.72;67.34;100067.56;4913156;29;20015;-96
2024/01/24 19:15:08;;;;;;;47.38;27.73;;;;;;;3.50;67.69;100039.50;4913133;29;20039;-96
2024/01/24 19:17:40;;;;;;;46.20;27.23;;;;;;;3.67;67.93;100059.34;4953188;29;20032;-96
2024/01/24 19:20:11;;;;;;;51.63;28.17;;;;;;;3.48;68.19;100036.22;4953953;29;20028;-96
2024/01/24 19:22:36;;;;;;;48.60;27.83;;;;;;;3.50;67.66;100035.00;4928050;29;20040;-95
2024/01/24 19:25:07;;;;;;;46.38;26.02;;;;;;;3.47;67.82;100026.63;4911701;29;20114;-96
2024/01/24 19:27:35;;;;;;;42.63;25.63;;;;;;;3.48;67.78;100025.59;4916175;29;20051;-95
2024/01/24 19:30:06;;;;;;;47.17;27.95;;;;;;;3.46;68.07;100009.81;4919152;29;20075;-96
2024/01/24 19:32:32;;;;;;;51.65;30.17;;;;;;;3.33;68.15;100002.66;4941749;29;20023;-96
2024/01/24 19:35:03;;;;;;;47.05;29.85;;;;;;;3.51;68.27;100017.19;4938537;29;20103;-96
2024/01/24 19:37:29;;;;;;;62.42;36.30;;;;;;;3.34;68.50;99995.47;4934936;29;20036;-96
2024/01/24 19:39:55;;;;;;;62.17;34.92;;;;;;;3.38;68.14;99994.06;4916947;29;20040;-95
2024/01/24 19:42:27;;;;;;;61.33;36.30;;;;;;;3.49;68.68;100000.63;4917017;29;20028;-96
2024/01/24 19:44:52;;;;;;;54.95;32.80;;;;;;;3.42;67.80;99974.81;4917876;29;20103;-96
2024/01/24 19:47:28;;;;;;;60.95;33.88;;;;;;;3.31;68.33;99969.28;4933203;29;20012;-96
2024/01/24 19:49:56;;;;;;;60.20;33.63;;;;;;;3.19;68.05;99948.59;4919232;29;20047;-95
2024/01/24 19:52:23;;;;;;;52.08;31.55;;;;;;;3.22;67.86;99956.19;4933810;29;20063;-96
2024/01/24 19:54:50;;;;;;;53.55;30.00;;;;;;;3.17;68.37;99947.19;4952930;29;20127;-96
2024/01/24 19:57:16;;;;;;;50.75;28.70;;;;;;;3.19;68.65;99950.47;4935463;29;20079;-96
2024/01/24 19:59:42;;;;;;;42.85;25.65;;;;;;;3.17;68.86;99931.22;4920345;29;20063;-96
2024/01/24 20:02:09;;;;;;;39.28;21.92;;;;;;;3.31;68.59;99942.69;4937615;29;20024;-96
2024/01/24 20:04:35;;;;;;;36.42;20.23;;;;;;;3.14;68.08;99927.13;4921700;29;20038;-96
2024/01/24 20:07:01;;;;;;;33.13;18.92;;;;;;;3.17;68.10;99907.28;4922287;29;20471;-96
2024/01/24 20:09:30;;;;;;;30.70;17.25;;;;;;;3.30;67.14;99888.66;4918702;29;20036;-96
2024/01/24 20:11:56;;;;;;;27.60;15.05;;;;;;;3.32;67.49;99893.72;4917680;29;20043;-96
2024/01/24 20:14:22;;;;;;;27.92;15.55;;;;;;;3.42;66.74;99907.44;4919663;29;20036;-95
2024/01/24 20:16:51;;;;;;;28.42;15.48;;;;;;;3.48;67.21;99925.22;4919243;29;20098;-96
2024/01/24 20:19:18;;;;;;;21.02;13.27;;;;;;;3.56;66.33;99935.66;4951133;29;20034;-96
2024/01/24 20:21:48;;;;;;;28.52;16.30;;;;;;;3.66;66.92;99931.75;4921503;29;20036;-96
2024/01/24 20:24:14;;;;;;;31.17;18.45;;;;;;;3.63;66.30;99925.00;4922282;29;20035;-96
2024/01/24 20:26:40;;;;;;;35.22;17.90;;;;;;;3.59;66.98;99921.09;4921326;29;20055;-96
2024/01/24 20:29:12;;;;;;;32.78;19.27;;;;;;;3.63;66.17;99917.00;4938408;29;20015;-96
2024/01/24 20:31:38;;;;;;;30.27;17.60;;;;;;;3.50;66.86;99909.88;4920354;29;20051;-96
2024/01/24 20:34:04;;;;;;;40.83;23.55;;;;;;;3.40;67.15;99898.84;4919523;29;20095;-96
2024/01/24 20:36:31;;;;;;;38.97;23.67;;;;;;;3.45;67.40;99920.34;4919374;29;20027;-96
2024/01/24 20:38:58;;;;;;;46.78;27.33;;;;;;;3.32;67.38;99904.38;4937101;29;20032;-96
2024/01/24 20:41:24;;;;;;;42.53;27.35;;;;;;;3.35;67.51;99893.34;4933912;29;20040;-96
2024/01/24 20:43:54;;;;;;;44.67;26.40;;;;;;;3.36;67.65;99898.47;4920270;29;20035;-96
2024/01/24 20:46:24;;;;;;;43.78;25.17;;;;;;;3.33;67.38;99890.88;4936198;29;20525;-96
2024/01/24 20:48:53;;;;;;;37.80;24.38;;;;;;;3.34;67.28;99876.56;4936465;29;20048;-96
2024/01/24 20:51:20;;;;;;;47.20;26.55;;;;;;;3.32;67.33;99877.75;4950587;29;20040;-96
2024/01/24 20:53:47;;;;;;;46.60;27.95;;;;;;;3.19;67.96;99874.09;4918347;29;20513;-95
2024/01/24 20:56:13;;;;;;;46.60;27.00;;;;;;;3.32;67.64;99883.94;4914627;29;20074;-96
2024/01/24 20:58:40;;;;;;;43.30;24.48;;;;;;;3.19;67.77;99871.44;4914029;29;20063;-95
2024/01/24 21:01:06;;;;;;;41.95;24.63;;;;;;;3.04;68.25;99861.03;4916035;29;20047;-95
2024/01/24 21:03:34;;;;;;;44.00;25.15;;;;;;;3.05;68.24;99859.22;4918578;29;20032;-96
2024/01/24 21:06:02;;;;;;;41.55;25.02;;;;;;;3.06;68.44;99849.38;4917027;29;20031;-96